Portada
METAR-TAF:

METAR-TAF

Aeroports :

Kanoya, Japó

latitud: 31-22N, longitud: 130-50E, altitud: 65 m

Observació

L'informe es va fer fa 22 minuts, a les 18:50 UTC
Vent 7 kt del Oest/Sud-Oest
Temperatura 28°C
Humitat 89%
Pressió 1012 hPa
Visibilitat 10 km o més
Núvols disperses a una alçada de 1500 ft
Escasses núvols a una alçada de 1500 ft, Cumulonimbus.

METAR: RJFY 191850Z 24007KT 9999 SCT015 FEW015CB 28/26 Q1012 RMK 4CU015 1CB015 A2990 CB 30KM NE MOV NE

Hora: 04:12 (19:12 UTC)


TAF: manca

Observacions i pronòstics meteorològics de més de 4000 aeroports (METAR i TAF).

Les estacions disponibles són els punts grocs i vermells al mapa.

Posi el ratolí al punt desitjat per veure el nom de l'estació.

Feu clic per veure les observacions i els pronòstics meteorològics.

Per canviar el mapa: feu clic els botons verds amb una creu de color negre per apropar; al botó verd amb un guió per allunyar la imatge; o en les fletxes verdes per a mapes adjacents.


METAR-TAF: